sensor_id;sensor_type;location;lat;lon;timestamp;temperature;humidity
56542;DHT22;42438;53.174;6.730;2023-04-23T00:01:05;8.10;99.90
56542;DHT22;42438;53.174;6.730;2023-04-23T00:03:36;8.10;99.90
56542;DHT22;42438;53.174;6.730;2023-04-23T00:06:08;8.00;99.90
56542;DHT22;42438;53.174;6.730;2023-04-23T00:08:42;8.10;99.90
56542;DHT22;42438;53.174;6.730;2023-04-23T00:11:12;8.10;99.90
56542;DHT22;42438;53.174;6.730;2023-04-23T00:13:43;8.20;99.90
56542;DHT22;42438;53.174;6.730;2023-04-23T00:16:17;8.20;99.90
56542;DHT22;42438;53.174;6.730;2023-04-23T00:18:48;8.20;99.90
56542;DHT22;42438;53.174;6.730;2023-04-23T00:21:18;8.20;99.90
56542;DHT22;42438;53.174;6.730;2023-04-23T00:23:49;8.20;99.90
56542;DHT22;42438;53.174;6.730;2023-04-23T00:26:19;8.20;99.90
56542;DHT22;42438;53.174;6.730;2023-04-23T00:28:50;8.10;99.90
56542;DHT22;42438;53.174;6.730;2023-04-23T00:31:20;8.10;99.90
56542;DHT22;42438;53.174;6.730;2023-04-23T00:33:52;8.50;99.90
56542;DHT22;42438;53.174;6.730;2023-04-23T00:36:23;8.00;99.90
56542;DHT22;42438;53.174;6.730;2023-04-23T00:38:54;8.10;99.90
56542;DHT22;42438;53.174;6.730;2023-04-23T00:41:25;8.10;99.90
56542;DHT22;42438;53.174;6.730;2023-04-23T00:43:57;8.10;99.90
56542;DHT22;42438;53.174;6.730;2023-04-23T00:46:28;8.00;99.90
56542;DHT22;42438;53.174;6.730;2023-04-23T00:48:59;8.00;99.90
56542;DHT22;42438;53.174;6.730;2023-04-23T00:51:30;7.90;99.90
56542;DHT22;42438;53.174;6.730;2023-04-23T00:54:04;7.90;99.90
56542;DHT22;42438;53.174;6.730;2023-04-23T00:56:34;8.20;99.90
56542;DHT22;42438;53.174;6.730;2023-04-23T00:59:05;7.90;99.90
56542;DHT22;42438;53.174;6.730;2023-04-23T01:01:36;7.90;99.90
56542;DHT22;42438;53.174;6.730;2023-04-23T01:04:06;7.90;99.90
56542;DHT22;42438;53.174;6.730;2023-04-23T01:06:38;7.90;99.90
56542;DHT22;42438;53.174;6.730;2023-04-23T01:09:09;7.90;99.90
56542;DHT22;42438;53.174;6.730;2023-04-23T01:11:41;7.80;99.90
56542;DHT22;42438;53.174;6.730;2023-04-23T01:14:12;7.80;99.90
56542;DHT22;42438;53.174;6.730;2023-04-23T01:16:42;7.80;99.90
56542;DHT22;42438;53.174;6.730;2023-04-23T01:19:13;7.80;99.90
56542;DHT22;42438;53.174;6.730;2023-04-23T01:21:45;7.80;99.90
56542;DHT22;42438;53.174;6.730;2023-04-23T01:24:16;7.70;99.90
56542;DHT22;42438;53.174;6.730;2023-04-23T01:26:47;7.70;99.90
56542;DHT22;42438;53.174;6.730;2023-04-23T01:29:17;7.60;99.90
56542;DHT22;42438;53.174;6.730;2023-04-23T01:31:48;7.60;99.90
56542;DHT22;42438;53.174;6.730;2023-04-23T01:34:20;7.60;99.90
56542;DHT22;42438;53.174;6.730;2023-04-23T01:36:51;7.50;99.90
56542;DHT22;42438;53.174;6.730;2023-04-23T01:39:23;7.60;99.90
56542;DHT22;42438;53.174;6.730;2023-04-23T01:41:53;7.50;99.90
56542;DHT22;42438;53.174;6.730;2023-04-23T01:44:24;7.40;99.90
56542;DHT22;42438;53.174;6.730;2023-04-23T01:46:55;7.40;99.90
56542;DHT22;42438;53.174;6.730;2023-04-23T01:49:26;7.40;99.90
56542;DHT22;42438;53.174;6.730;2023-04-23T01:51:57;7.40;99.90
56542;DHT22;42438;53.174;6.730;2023-04-23T01:54:27;7.40;99.90
56542;DHT22;42438;53.174;6.730;2023-04-23T01:56:58;7.40;99.90
56542;DHT22;42438;53.174;6.730;2023-04-23T01:59:29;7.50;99.90
56542;DHT22;42438;53.174;6.730;2023-04-23T02:02:00;7.50;99.90
56542;DHT22;42438;53.174;6.730;2023-04-23T02:04:30;7.50;99.90
56542;DHT22;42438;53.174;6.730;2023-04-23T02:07:01;7.50;99.90
56542;DHT22;42438;53.174;6.730;2023-04-23T02:09:32;7.50;99.90
56542;DHT22;42438;53.174;6.730;2023-04-23T02:12:02;7.50;99.90
56542;DHT22;42438;53.174;6.730;2023-04-23T02:14:33;7.50;99.90
56542;DHT22;42438;53.174;6.730;2023-04-23T02:17:03;7.40;99.90
56542;DHT22;42438;53.174;6.730;2023-04-23T02:19:34;7.40;99.90
56542;DHT22;42438;53.174;6.730;2023-04-23T02:22:05;7.40;99.90
56542;DHT22;42438;53.174;6.730;2023-04-23T02:24:36;7.30;99.90
56542;DHT22;42438;53.174;6.730;2023-04-23T02:27:08;7.30;99.90
56542;DHT22;42438;53.174;6.730;2023-04-23T02:29:38;7.30;99.90
56542;DHT22;42438;53.174;6.730;2023-04-23T02:32:09;7.20;99.90
56542;DHT22;42438;53.174;6.730;2023-04-23T02:34:40;7.20;99.90
56542;DHT22;42438;53.174;6.730;2023-04-23T02:37:11;7.20;99.90
56542;DHT22;42438;53.174;6.730;2023-04-23T02:39:41;7.20;99.90
56542;DHT22;42438;53.174;6.730;2023-04-23T02:42:12;7.10;99.90
56542;DHT22;42438;53.174;6.730;2023-04-23T02:44:42;7.10;99.90
56542;DHT22;42438;53.174;6.730;2023-04-23T02:47:13;7.10;99.90
56542;DHT22;42438;53.174;6.730;2023-04-23T02:49:43;7.20;99.90
56542;DHT22;42438;53.174;6.730;2023-04-23T02:52:14;7.10;99.90
56542;DHT22;42438;53.174;6.730;2023-04-23T02:54:45;7.10;99.90
56542;DHT22;42438;53.174;6.730;2023-04-23T02:57:15;7.10;99.90
56542;DHT22;42438;53.174;6.730;2023-04-23T02:59:46;7.00;99.90
56542;DHT22;42438;53.174;6.730;2023-04-23T03:02:16;7.00;99.90
56542;DHT22;42438;53.174;6.730;2023-04-23T03:04:47;6.90;99.90
56542;DHT22;42438;53.174;6.730;2023-04-23T03:07:17;6.90;99.90
56542;DHT22;42438;53.174;6.730;2023-04-23T03:09:48;6.90;99.90
56542;DHT22;42438;53.174;6.730;2023-04-23T03:12:18;6.90;99.90
56542;DHT22;42438;53.174;6.730;2023-04-23T03:14:49;6.90;99.90
56542;DHT22;42438;53.174;6.730;2023-04-23T03:17:20;6.90;99.90
56542;DHT22;42438;53.174;6.730;2023-04-23T03:19:50;6.70;99.90
56542;DHT22;42438;53.174;6.730;2023-04-23T03:22:21;6.90;99.90
56542;DHT22;42438;53.174;6.730;2023-04-23T03:24:51;6.80;99.90
56542;DHT22;42438;53.174;6.730;2023-04-23T03:27:22;6.80;99.90
56542;DHT22;42438;53.174;6.730;2023-04-23T03:29:52;6.80;99.90
56542;DHT22;42438;53.174;6.730;2023-04-23T03:32:23;6.60;99.90
56542;DHT22;42438;53.174;6.730;2023-04-23T03:34:54;6.80;99.90
56542;DHT22;42438;53.174;6.730;2023-04-23T03:37:24;7.20;99.90
56542;DHT22;42438;53.174;6.730;2023-04-23T03:39:55;7.00;99.90
56542;DHT22;42438;53.174;6.730;2023-04-23T03:42:25;7.20;99.90
56542;DHT22;42438;53.174;6.730;2023-04-23T03:44:56;7.00;99.90
56542;DHT22;42438;53.174;6.730;2023-04-23T03:47:26;7.30;99.90
56542;DHT22;42438;53.174;6.730;2023-04-23T03:49:57;6.90;99.90
56542;DHT22;42438;53.174;6.730;2023-04-23T03:52:28;7.10;99.90
56542;DHT22;42438;53.174;6.730;2023-04-23T03:54:58;7.10;99.90
56542;DHT22;42438;53.174;6.730;2023-04-23T03:57:29;7.10;99.90
56542;DHT22;42438;53.174;6.730;2023-04-23T03:59:59;6.80;99.90
56542;DHT22;42438;53.174;6.730;2023-04-23T04:02:32;6.70;99.90
56542;DHT22;42438;53.174;6.730;2023-04-23T04:05:02;6.90;99.90
56542;DHT22;42438;53.174;6.730;2023-04-23T04:07:33;6.50;99.90
56542;DHT22;42438;53.174;6.730;2023-04-23T04:10:05;6.80;99.90
56542;DHT22;42438;53.174;6.730;2023-04-23T04:12:36;6.80;99.90
56542;DHT22;42438;53.174;6.730;2023-04-23T04:15:06;7.30;99.90
56542;DHT22;42438;53.174;6.730;2023-04-23T04:17:38;6.80;99.90
56542;DHT22;42438;53.174;6.730;2023-04-23T04:20:08;7.00;99.90
56542;DHT22;42438;53.174;6.730;2023-04-23T04:22:40;6.90;99.90
56542;DHT22;42438;53.174;6.730;2023-04-23T04:25:11;7.60;99.90
56542;DHT22;42438;53.174;6.730;2023-04-23T04:27:41;7.10;99.90
56542;DHT22;42438;53.174;6.730;2023-04-23T04:30:13;7.10;99.90
56542;DHT22;42438;53.174;6.730;2023-04-23T04:32:43;7.00;99.90
56542;DHT22;42438;53.174;6.730;2023-04-23T04:35:15;7.30;99.90
56542;DHT22;42438;53.174;6.730;2023-04-23T04:37:45;7.30;99.90
56542;DHT22;42438;53.174;6.730;2023-04-23T04:40:16;7.20;99.90
56542;DHT22;42438;53.174;6.730;2023-04-23T04:42:47;7.00;99.90
56542;DHT22;42438;53.174;6.730;2023-04-23T04:45:17;7.50;99.90
56542;DHT22;42438;53.174;6.730;2023-04-23T04:47:48;7.30;99.90
56542;DHT22;42438;53.174;6.730;2023-04-23T04:50:19;7.70;99.90
56542;DHT22;42438;53.174;6.730;2023-04-23T04:52:50;7.20;99.90
56542;DHT22;42438;53.174;6.730;2023-04-23T04:55:20;7.60;99.90
56542;DHT22;42438;53.174;6.730;2023-04-23T04:57:51;7.30;99.90
56542;DHT22;42438;53.174;6.730;2023-04-23T05:00:23;8.10;99.90
56542;DHT22;42438;53.174;6.730;2023-04-23T05:02:55;7.30;99.90
56542;DHT22;42438;53.174;6.730;2023-04-23T05:05:26;7.60;99.90
56542;DHT22;42438;53.174;6.730;2023-04-23T05:07:57;7.50;99.90
56542;DHT22;42438;53.174;6.730;2023-04-23T05:10:31;7.90;99.90
56542;DHT22;42438;53.174;6.730;2023-04-23T05:13:01;8.00;99.90
56542;DHT22;42438;53.174;6.730;2023-04-23T05:15:32;7.90;99.90
56542;DHT22;42438;53.174;6.730;2023-04-23T05:18:04;7.90;99.90
56542;DHT22;42438;53.174;6.730;2023-04-23T05:20:35;7.70;99.90
56542;DHT22;42438;53.174;6.730;2023-04-23T05:23:05;7.90;99.90
56542;DHT22;42438;53.174;6.730;2023-04-23T05:25:36;7.40;99.90
56542;DHT22;42438;53.174;6.730;2023-04-23T05:28:06;8.00;99.90
56542;DHT22;42438;53.174;6.730;2023-04-23T05:30:38;7.50;99.90
56542;DHT22;42438;53.174;6.730;2023-04-23T05:33:08;7.90;99.90
56542;DHT22;42438;53.174;6.730;2023-04-23T05:35:39;7.70;99.90
56542;DHT22;42438;53.174;6.730;2023-04-23T05:38:09;7.70;99.90
56542;DHT22;42438;53.174;6.730;2023-04-23T05:40:41;7.90;99.90
56542;DHT22;42438;53.174;6.730;2023-04-23T05:43:11;8.10;99.90
56542;DHT22;42438;53.174;6.730;2023-04-23T05:45:42;8.40;99.90
56542;DHT22;42438;53.174;6.730;2023-04-23T05:48:12;8.30;99.90
56542;DHT22;42438;53.174;6.730;2023-04-23T05:50:43;8.60;99.90
56542;DHT22;42438;53.174;6.730;2023-04-23T05:53:14;8.60;99.90
56542;DHT22;42438;53.174;6.730;2023-04-23T05:55:44;8.60;99.90
56542;DHT22;42438;53.174;6.730;2023-04-23T05:58:15;8.60;99.90
56542;DHT22;42438;53.174;6.730;2023-04-23T06:00:46;8.50;99.90
56542;DHT22;42438;53.174;6.730;2023-04-23T06:03:17;8.70;99.90
56542;DHT22;42438;53.174;6.730;2023-04-23T06:05:47;8.80;99.90
56542;DHT22;42438;53.174;6.730;2023-04-23T06:08:18;8.50;99.90
56542;DHT22;42438;53.174;6.730;2023-04-23T06:10:49;8.60;99.90
56542;DHT22;42438;53.174;6.730;2023-04-23T06:13:20;8.80;99.90
56542;DHT22;42438;53.174;6.730;2023-04-23T06:15:51;9.00;99.90
56542;DHT22;42438;53.174;6.730;2023-04-23T06:18:21;9.00;99.90
56542;DHT22;42438;53.174;6.730;2023-04-23T06:20:52;9.00;99.90
56542;DHT22;42438;53.174;6.730;2023-04-23T06:23:22;9.00;99.90
56542;DHT22;42438;53.174;6.730;2023-04-23T06:25:53;9.10;99.90
56542;DHT22;42438;53.174;6.730;2023-04-23T06:28:23;9.30;99.90
56542;DHT22;42438;53.174;6.730;2023-04-23T06:30:54;9.60;99.90
56542;DHT22;42438;53.174;6.730;2023-04-23T06:33:25;9.30;99.90
56542;DHT22;42438;53.174;6.730;2023-04-23T06:35:55;9.40;99.90
56542;DHT22;42438;53.174;6.730;2023-04-23T06:38:26;9.40;99.90
56542;DHT22;42438;53.174;6.730;2023-04-23T06:40:56;9.60;99.90
56542;DHT22;42438;53.174;6.730;2023-04-23T06:43:28;9.70;99.90
56542;DHT22;42438;53.174;6.730;2023-04-23T06:45:58;9.90;99.90
56542;DHT22;42438;53.174;6.730;2023-04-23T06:48:29;10.10;99.90
56542;DHT22;42438;53.174;6.730;2023-04-23T06:51:01;10.20;99.90
56542;DHT22;42438;53.174;6.730;2023-04-23T06:53:32;10.30;99.90
56542;DHT22;42438;53.174;6.730;2023-04-23T06:56:02;10.30;99.90
56542;DHT22;42438;53.174;6.730;2023-04-23T06:58:33;10.40;99.90
56542;DHT22;42438;53.174;6.730;2023-04-23T07:01:04;10.50;99.90
56542;DHT22;42438;53.174;6.730;2023-04-23T07:03:34;10.70;99.90
56542;DHT22;42438;53.174;6.730;2023-04-23T07:06:06;10.80;99.90
56542;DHT22;42438;53.174;6.730;2023-04-23T07:08:36;10.90;99.90
56542;DHT22;42438;53.174;6.730;2023-04-23T07:11:08;11.00;99.90
56542;DHT22;42438;53.174;6.730;2023-04-23T07:13:40;11.00;99.90
56542;DHT22;42438;53.174;6.730;2023-04-23T07:16:11;11.00;99.90
56542;DHT22;42438;53.174;6.730;2023-04-23T07:18:42;11.10;99.90
56542;DHT22;42438;53.174;6.730;2023-04-23T07:21:12;11.10;99.90
56542;DHT22;42438;53.174;6.730;2023-04-23T07:23:43;11.10;99.90
56542;DHT22;42438;53.174;6.730;2023-04-23T07:26:13;11.20;99.90
56542;DHT22;42438;53.174;6.730;2023-04-23T07:28:45;11.20;99.90
56542;DHT22;42438;53.174;6.730;2023-04-23T07:31:17;11.30;99.90
56542;DHT22;42438;53.174;6.730;2023-04-23T07:33:48;11.40;99.90
56542;DHT22;42438;53.174;6.730;2023-04-23T07:36:19;11.50;99.90
56542;DHT22;42438;53.174;6.730;2023-04-23T07:38:49;11.60;99.90
56542;DHT22;42438;53.174;6.730;2023-04-23T07:41:20;11.60;99.90
56542;DHT22;42438;53.174;6.730;2023-04-23T07:43:51;11.70;99.90
56542;DHT22;42438;53.174;6.730;2023-04-23T07:46:21;11.90;99.90
56542;DHT22;42438;53.174;6.730;2023-04-23T07:48:52;12.00;99.90
56542;DHT22;42438;53.174;6.730;2023-04-23T07:51:22;11.90;99.90
56542;DHT22;42438;53.174;6.730;2023-04-23T07:53:56;12.30;99.90
56542;DHT22;42438;53.174;6.730;2023-04-23T07:56:27;12.50;99.90
56542;DHT22;42438;53.174;6.730;2023-04-23T07:59:01;12.60;99.90
56542;DHT22;42438;53.174;6.730;2023-04-23T08:01:32;12.70;99.90
56542;DHT22;42438;53.174;6.730;2023-04-23T08:04:03;12.90;99.90
56542;DHT22;42438;53.174;6.730;2023-04-23T08:06:34;13.00;99.90
56542;DHT22;42438;53.174;6.730;2023-04-23T08:09:04;13.10;99.90
56542;DHT22;42438;53.174;6.730;2023-04-23T08:11:35;13.00;99.90
56542;DHT22;42438;53.174;6.730;2023-04-23T08:14:06;12.90;99.90
56542;DHT22;42438;53.174;6.730;2023-04-23T08:16:36;12.80;99.90
56542;DHT22;42438;53.174;6.730;2023-04-23T08:19:07;12.90;99.90
56542;DHT22;42438;53.174;6.730;2023-04-23T08:21:38;13.00;99.90
56542;DHT22;42438;53.174;6.730;2023-04-23T08:24:08;13.00;99.90
56542;DHT22;42438;53.174;6.730;2023-04-23T08:26:39;13.10;99.90
56542;DHT22;42438;53.174;6.730;2023-04-23T08:29:09;13.20;99.90
56542;DHT22;42438;53.174;6.730;2023-04-23T08:31:40;13.40;99.90
56542;DHT22;42438;53.174;6.730;2023-04-23T08:34:10;13.40;99.90
56542;DHT22;42438;53.174;6.730;2023-04-23T08:36:41;13.50;99.90
56542;DHT22;42438;53.174;6.730;2023-04-23T08:39:12;13.50;99.90
56542;DHT22;42438;53.174;6.730;2023-04-23T08:41:42;13.70;99.90
56542;DHT22;42438;53.174;6.730;2023-04-23T08:44:16;13.80;99.90
56542;DHT22;42438;53.174;6.730;2023-04-23T08:46:47;13.80;99.90
56542;DHT22;42438;53.174;6.730;2023-04-23T08:49:18;13.90;99.90
56542;DHT22;42438;53.174;6.730;2023-04-23T08:51:51;14.10;99.90
56542;DHT22;42438;53.174;6.730;2023-04-23T08:54:25;14.20;99.90
56542;DHT22;42438;53.174;6.730;2023-04-23T08:56:58;14.30;99.90
56542;DHT22;42438;53.174;6.730;2023-04-23T08:59:29;14.40;99.90
56542;DHT22;42438;53.174;6.730;2023-04-23T09:02:01;14.40;99.90
56542;DHT22;42438;53.174;6.730;2023-04-23T09:04:37;14.60;99.90
56542;DHT22;42438;53.174;6.730;2023-04-23T09:07:07;14.70;99.90
56542;DHT22;42438;53.174;6.730;2023-04-23T09:09:40;14.90;99.90
56542;DHT22;42438;53.174;6.730;2023-04-23T09:12:11;15.10;99.90
56542;DHT22;42438;53.174;6.730;2023-04-23T09:14:41;15.30;99.90
56542;DHT22;42438;53.174;6.730;2023-04-23T09:17:12;15.40;99.90
56542;DHT22;42438;53.174;6.730;2023-04-23T09:19:42;15.40;99.90
56542;DHT22;42438;53.174;6.730;2023-04-23T09:22:13;15.50;99.90
56542;DHT22;42438;53.174;6.730;2023-04-23T09:24:44;15.80;99.90
56542;DHT22;42438;53.174;6.730;2023-04-23T09:27:15;16.00;99.90
56542;DHT22;42438;53.174;6.730;2023-04-23T09:29:48;16.00;99.90
56542;DHT22;42438;53.174;6.730;2023-04-23T09:32:29;16.10;99.90
56542;DHT22;42438;53.174;6.730;2023-04-23T09:35:07;16.20;99.90
56542;DHT22;42438;53.174;6.730;2023-04-23T09:37:42;16.30;99.90
56542;DHT22;42438;53.174;6.730;2023-04-23T09:40:18;16.60;99.90
56542;DHT22;42438;53.174;6.730;2023-04-23T09:42:50;16.80;99.90
56542;DHT22;42438;53.174;6.730;2023-04-23T09:45:24;17.00;99.90
56542;DHT22;42438;53.174;6.730;2023-04-23T09:47:56;17.30;99.90
56542;DHT22;42438;53.174;6.730;2023-04-23T09:50:37;17.60;99.90
56542;DHT22;42438;53.174;6.730;2023-04-23T09:53:08;17.50;99.90
56542;DHT22;42438;53.174;6.730;2023-04-23T09:55:39;17.40;99.90
56542;DHT22;42438;53.174;6.730;2023-04-23T09:58:13;17.30;99.90
56542;DHT22;42438;53.174;6.730;2023-04-23T10:00:44;17.40;99.90
56542;DHT22;42438;53.174;6.730;2023-04-23T10:03:15;17.70;99.90
56542;DHT22;42438;53.174;6.730;2023-04-23T10:05:56;17.70;99.90
56542;DHT22;42438;53.174;6.730;2023-04-23T10:08:28;17.80;99.90
56542;DHT22;42438;53.174;6.730;2023-04-23T10:11:00;18.00;99.90
56542;DHT22;42438;53.174;6.730;2023-04-23T10:13:30;18.00;99.90
56542;DHT22;42438;53.174;6.730;2023-04-23T10:16:02;18.00;99.90
56542;DHT22;42438;53.174;6.730;2023-04-23T10:18:33;17.80;99.90
56542;DHT22;42438;53.174;6.730;2023-04-23T10:21:06;17.60;99.90
56542;DHT22;42438;53.174;6.730;2023-04-23T10:23:37;17.40;99.90
56542;DHT22;42438;53.174;6.730;2023-04-23T10:26:10;17.50;99.90
56542;DHT22;42438;53.174;6.730;2023-04-23T10:28:45;17.70;99.90
56542;DHT22;42438;53.174;6.730;2023-04-23T10:31:16;17.90;99.90
56542;DHT22;42438;53.174;6.730;2023-04-23T10:33:49;18.00;99.90
56542;DHT22;42438;53.174;6.730;2023-04-23T10:38:51;18.60;99.90
56542;DHT22;42438;53.174;6.730;2023-04-23T10:41:23;18.80;99.90
56542;DHT22;42438;53.174;6.730;2023-04-23T10:43:58;18.90;99.90
56542;DHT22;42438;53.174;6.730;2023-04-23T10:46:29;18.90;99.90
56542;DHT22;42438;53.174;6.730;2023-04-23T10:51:39;19.00;99.90
56542;DHT22;42438;53.174;6.730;2023-04-23T10:54:15;19.20;99.90
56542;DHT22;42438;53.174;6.730;2023-04-23T10:56:46;19.40;99.90
56542;DHT22;42438;53.174;6.730;2023-04-23T10:59:27;19.50;99.90
56542;DHT22;42438;53.174;6.730;2023-04-23T11:02:05;19.50;99.90
56542;DHT22;42438;53.174;6.730;2023-04-23T11:04:40;19.20;99.90
56542;DHT22;42438;53.174;6.730;2023-04-23T11:07:11;19.30;99.90
56542;DHT22;42438;53.174;6.730;2023-04-23T11:09:44;19.90;99.90
56542;DHT22;42438;53.174;6.730;2023-04-23T11:14:59;19.70;98.90
56542;DHT22;42438;53.174;6.730;2023-04-23T11:20:20;19.60;98.30
56542;DHT22;42438;53.174;6.730;2023-04-23T11:22:51;19.70;98.50
56542;DHT22;42438;53.174;6.730;2023-04-23T11:25:23;19.40;98.20
56542;DHT22;42438;53.174;6.730;2023-04-23T11:27:54;19.10;98.20
56542;DHT22;42438;53.174;6.730;2023-04-23T11:30:26;19.10;99.70
56542;DHT22;42438;53.174;6.730;2023-04-23T11:32:56;18.90;99.60
56542;DHT22;42438;53.174;6.730;2023-04-23T11:35:28;18.80;99.60
56542;DHT22;42438;53.174;6.730;2023-04-23T11:38:06;18.60;99.70
56542;DHT22;42438;53.174;6.730;2023-04-23T11:40:37;18.60;99.90
56542;DHT22;42438;53.174;6.730;2023-04-23T11:43:09;18.60;99.90
56542;DHT22;42438;53.174;6.730;2023-04-23T11:45:40;18.90;99.30
56542;DHT22;42438;53.174;6.730;2023-04-23T11:48:10;19.20;98.60
56542;DHT22;42438;53.174;6.730;2023-04-23T11:50:41;19.20;97.70
56542;DHT22;42438;53.174;6.730;2023-04-23T11:53:11;19.20;97.60
56542;DHT22;42438;53.174;6.730;2023-04-23T11:55:43;19.40;98.20
56542;DHT22;42438;53.174;6.730;2023-04-23T11:58:17;19.70;96.30
56542;DHT22;42438;53.174;6.730;2023-04-23T12:00:49;19.90;95.20
56542;DHT22;42438;53.174;6.730;2023-04-23T12:03:26;20.10;96.80
56542;DHT22;42438;53.174;6.730;2023-04-23T12:05:56;20.50;96.40
56542;DHT22;42438;53.174;6.730;2023-04-23T12:08:30;20.70;95.50
56542;DHT22;42438;53.174;6.730;2023-04-23T12:11:02;20.80;94.20
56542;DHT22;42438;53.174;6.730;2023-04-23T12:13:38;21.00;94.40
56542;DHT22;42438;53.174;6.730;2023-04-23T12:16:08;20.90;93.30
56542;DHT22;42438;53.174;6.730;2023-04-23T12:18:39;20.90;94.70
56542;DHT22;42438;53.174;6.730;2023-04-23T12:21:11;20.90;94.20
56542;DHT22;42438;53.174;6.730;2023-04-23T12:23:46;21.00;93.50
56542;DHT22;42438;53.174;6.730;2023-04-23T12:26:20;21.10;93.10
56542;DHT22;42438;53.174;6.730;2023-04-23T12:28:55;21.10;93.60
56542;DHT22;42438;53.174;6.730;2023-04-23T12:31:28;21.20;94.50
56542;DHT22;42438;53.174;6.730;2023-04-23T12:34:03;20.90;92.50
56542;DHT22;42438;53.174;6.730;2023-04-23T12:36:34;20.50;93.10
56542;DHT22;42438;53.174;6.730;2023-04-23T12:44:37;19.70;92.80
56542;DHT22;42438;53.174;6.730;2023-04-23T12:47:08;19.50;94.90
56542;DHT22;42438;53.174;6.730;2023-04-23T12:49:40;19.50;95.30
56542;DHT22;42438;53.174;6.730;2023-04-23T12:52:12;19.50;94.30
56542;DHT22;42438;53.174;6.730;2023-04-23T12:54:42;19.40;93.90
56542;DHT22;42438;53.174;6.730;2023-04-23T12:57:14;19.40;95.20
56542;DHT22;42438;53.174;6.730;2023-04-23T12:59:45;19.30;94.50
56542;DHT22;42438;53.174;6.730;2023-04-23T13:02:15;19.20;95.80
56542;DHT22;42438;53.174;6.730;2023-04-23T13:04:46;19.20;96.10
56542;DHT22;42438;53.174;6.730;2023-04-23T13:07:16;19.20;96.40
56542;DHT22;42438;53.174;6.730;2023-04-23T13:09:47;19.30;95.60
56542;DHT22;42438;53.174;6.730;2023-04-23T13:12:17;19.30;95.80
56542;DHT22;42438;53.174;6.730;2023-04-23T13:14:48;19.30;94.80
56542;DHT22;42438;53.174;6.730;2023-04-23T13:17:18;19.40;94.70
56542;DHT22;42438;53.174;6.730;2023-04-23T13:19:49;19.40;95.90
56542;DHT22;42438;53.174;6.730;2023-04-23T13:22:20;19.30;95.50
56542;DHT22;42438;53.174;6.730;2023-04-23T13:24:53;19.20;96.30
56542;DHT22;42438;53.174;6.730;2023-04-23T13:27:24;19.00;95.20
56542;DHT22;42438;53.174;6.730;2023-04-23T13:29:55;18.80;95.50
56542;DHT22;42438;53.174;6.730;2023-04-23T13:32:26;18.70;96.10
56542;DHT22;42438;53.174;6.730;2023-04-23T13:35:01;18.60;98.40
56542;DHT22;42438;53.174;6.730;2023-04-23T13:37:34;18.50;96.00
56542;DHT22;42438;53.174;6.730;2023-04-23T13:40:04;18.60;96.70
56542;DHT22;42438;53.174;6.730;2023-04-23T13:42:35;18.60;97.40
56542;DHT22;42438;53.174;6.730;2023-04-23T13:45:06;18.80;97.60
56542;DHT22;42438;53.174;6.730;2023-04-23T13:47:37;18.90;97.20
56542;DHT22;42438;53.174;6.730;2023-04-23T13:50:07;19.00;96.30
56542;DHT22;42438;53.174;6.730;2023-04-23T13:52:39;19.10;96.00
56542;DHT22;42438;53.174;6.730;2023-04-23T13:55:10;19.10;95.30
56542;DHT22;42438;53.174;6.730;2023-04-23T13:57:40;19.20;95.30
56542;DHT22;42438;53.174;6.730;2023-04-23T14:00:12;19.40;95.50
56542;DHT22;42438;53.174;6.730;2023-04-23T14:02:43;19.50;93.10
56542;DHT22;42438;53.174;6.730;2023-04-23T14:05:13;19.70;93.30
56542;DHT22;42438;53.174;6.730;2023-04-23T14:07:44;19.80;95.30
56542;DHT22;42438;53.174;6.730;2023-04-23T14:10:14;19.90;94.50
56542;DHT22;42438;53.174;6.730;2023-04-23T14:12:45;20.00;94.20
56542;DHT22;42438;53.174;6.730;2023-04-23T14:15:16;20.00;95.50
56542;DHT22;42438;53.174;6.730;2023-04-23T14:17:46;19.90;96.20
56542;DHT22;42438;53.174;6.730;2023-04-23T14:20:17;19.60;96.30
56542;DHT22;42438;53.174;6.730;2023-04-23T14:22:50;19.50;95.30
56542;DHT22;42438;53.174;6.730;2023-04-23T14:25:28;19.40;96.00
56542;DHT22;42438;53.174;6.730;2023-04-23T14:28:00;19.40;96.00
56542;DHT22;42438;53.174;6.730;2023-04-23T14:30:31;19.50;95.70
56542;DHT22;42438;53.174;6.730;2023-04-23T14:33:03;19.60;95.40
56542;DHT22;42438;53.174;6.730;2023-04-23T14:35:34;19.60;95.50
56542;DHT22;42438;53.174;6.730;2023-04-23T14:38:04;19.60;96.00
56542;DHT22;42438;53.174;6.730;2023-04-23T14:40:35;19.70;95.50
56542;DHT22;42438;53.174;6.730;2023-04-23T14:43:06;19.80;95.20
56542;DHT22;42438;53.174;6.730;2023-04-23T14:45:36;19.90;93.40
56542;DHT22;42438;53.174;6.730;2023-04-23T14:48:07;20.00;93.20
56542;DHT22;42438;53.174;6.730;2023-04-23T14:50:37;20.10;92.80
56542;DHT22;42438;53.174;6.730;2023-04-23T14:53:08;20.10;92.80
56542;DHT22;42438;53.174;6.730;2023-04-23T14:55:39;20.10;91.40
56542;DHT22;42438;53.174;6.730;2023-04-23T14:58:12;20.10;91.70
56542;DHT22;42438;53.174;6.730;2023-04-23T15:00:43;20.00;90.80
56542;DHT22;42438;53.174;6.730;2023-04-23T15:03:13;20.00;90.60
56542;DHT22;42438;53.174;6.730;2023-04-23T15:05:44;20.10;91.90
56542;DHT22;42438;53.174;6.730;2023-04-23T15:08:15;20.10;90.90
56542;DHT22;42438;53.174;6.730;2023-04-23T15:10:45;20.00;90.90
56542;DHT22;42438;53.174;6.730;2023-04-23T15:13:29;20.00;91.30
56542;DHT22;42438;53.174;6.730;2023-04-23T15:16:01;20.00;91.80
56542;DHT22;42438;53.174;6.730;2023-04-23T15:18:32;20.00;91.90
56542;DHT22;42438;53.174;6.730;2023-04-23T15:21:03;19.90;92.10
56542;DHT22;42438;53.174;6.730;2023-04-23T15:23:33;19.90;92.40
56542;DHT22;42438;53.174;6.730;2023-04-23T15:26:04;19.90;92.10
56542;DHT22;42438;53.174;6.730;2023-04-23T15:28:35;19.90;91.90
56542;DHT22;42438;53.174;6.730;2023-04-23T15:31:05;19.80;91.40
56542;DHT22;42438;53.174;6.730;2023-04-23T15:33:36;19.70;91.90
56542;DHT22;42438;53.174;6.730;2023-04-23T15:36:06;19.60;91.60
56542;DHT22;42438;53.174;6.730;2023-04-23T15:38:37;19.60;91.50
56542;DHT22;42438;53.174;6.730;2023-04-23T15:41:07;19.50;92.10
56542;DHT22;42438;53.174;6.730;2023-04-23T15:43:38;19.40;92.60
56542;DHT22;42438;53.174;6.730;2023-04-23T15:46:09;19.40;92.70
56542;DHT22;42438;53.174;6.730;2023-04-23T15:48:39;19.30;92.60
56542;DHT22;42438;53.174;6.730;2023-04-23T15:51:10;19.20;91.90
56542;DHT22;42438;53.174;6.730;2023-04-23T15:53:41;19.10;92.70
56542;DHT22;42438;53.174;6.730;2023-04-23T15:56:11;19.10;92.80
56542;DHT22;42438;53.174;6.730;2023-04-23T15:58:42;19.10;92.60
56542;DHT22;42438;53.174;6.730;2023-04-23T16:01:12;19.00;91.90
56542;DHT22;42438;53.174;6.730;2023-04-23T16:03:43;18.90;92.20
56542;DHT22;42438;53.174;6.730;2023-04-23T16:06:14;18.90;92.00
56542;DHT22;42438;53.174;6.730;2023-04-23T16:08:44;18.80;93.00
56542;DHT22;42438;53.174;6.730;2023-04-23T16:11:15;18.80;92.60
56542;DHT22;42438;53.174;6.730;2023-04-23T16:13:45;18.70;92.30
56542;DHT22;42438;53.174;6.730;2023-04-23T16:16:16;18.70;92.70
56542;DHT22;42438;53.174;6.730;2023-04-23T16:18:46;18.60;92.60